createdAt,value
2023-05-12T00:04:52.233Z,53.96
2023-05-12T00:14:53.583Z,53.67
2023-05-12T00:24:54.819Z,53.59
2023-05-12T00:34:56.066Z,53.24
2023-05-12T00:44:57.276Z,53.29
2023-05-12T00:55:01.638Z,53.29
2023-05-12T01:05:02.906Z,53.31
2023-05-12T01:15:04.177Z,52.76
2023-05-12T01:25:05.457Z,53.04
2023-05-12T01:35:06.717Z,52.77
2023-05-12T01:45:07.967Z,52.95
2023-05-12T01:55:11.526Z,52.42
2023-05-12T02:05:12.770Z,52.36
2023-05-12T02:15:14.017Z,52.32
2023-05-12T02:25:15.322Z,52.53
2023-05-12T02:35:16.616Z,52.44
2023-05-12T02:45:17.857Z,52.40
2023-05-12T02:55:19.120Z,52.20
2023-05-12T03:05:20.351Z,52.10
2023-05-12T03:15:21.609Z,52.10
2023-05-12T03:25:22.816Z,52.25
2023-05-12T03:35:24.119Z,52.58
2023-05-12T03:45:25.337Z,52.30
2023-05-12T03:55:26.648Z,52.39
2023-05-12T04:05:27.879Z,52.43
2023-05-12T04:15:29.129Z,52.94
2023-05-12T04:25:30.391Z,53.30
2023-05-12T04:35:31.631Z,53.40
2023-05-12T04:45:32.844Z,53.80
2023-05-12T04:55:34.150Z,53.75
2023-05-12T05:05:35.386Z,54.23
2023-05-12T05:15:36.686Z,54.36
2023-05-12T05:25:37.982Z,54.61
2023-05-12T05:35:39.217Z,55.12
2023-05-12T05:45:40.520Z,55.16
2023-05-12T05:55:44.891Z,55.38
2023-05-12T06:05:46.127Z,55.56
2023-05-12T06:15:47.350Z,55.82
2023-05-12T06:25:48.599Z,56.20
2023-05-12T06:35:49.882Z,56.38
2023-05-12T06:45:53.146Z,57.37
2023-05-12T06:55:54.410Z,57.68
2023-05-12T07:05:55.706Z,58.42
2023-05-12T07:15:57.028Z,58.69
2023-05-12T07:25:58.321Z,59.54
2023-05-12T07:35:59.580Z,59.32
2023-05-12T07:46:00.853Z,58.99
2023-05-12T07:56:02.134Z,60.58
2023-05-12T08:06:03.485Z,60.05
2023-05-12T08:16:04.771Z,60.04
2023-05-12T08:26:06.084Z,58.82
2023-05-12T08:36:07.310Z,59.73
2023-05-12T08:46:08.622Z,59.21
2023-05-12T09:06:14.097Z,60.15
2023-05-12T09:16:15.367Z,60.06
2023-05-12T09:26:16.631Z,59.85
2023-05-12T09:36:17.944Z,59.13
2023-05-12T09:46:19.202Z,59.26
2023-05-12T09:56:20.447Z,59.57
2023-05-12T10:06:21.682Z,58.81
2023-05-12T10:16:22.981Z,58.28
2023-05-12T10:26:24.283Z,58.15
2023-05-12T10:36:25.548Z,57.99
2023-05-12T10:46:26.827Z,58.95
2023-05-12T10:56:28.347Z,58.62
2023-05-12T11:06:30.764Z,57.91
2023-05-12T11:16:32.416Z,58.31
2023-05-12T11:26:34.983Z,57.87
2023-05-12T11:36:37.449Z,57.20
2023-05-12T11:46:38.691Z,56.70
2023-05-12T11:56:39.905Z,56.24
2023-05-12T12:06:41.196Z,55.39
2023-05-12T12:16:42.452Z,55.24
2023-05-12T12:26:43.761Z,55.02
2023-05-12T12:36:45.038Z,53.69
2023-05-12T12:46:46.398Z,53.02
2023-05-12T12:56:47.722Z,53.49
2023-05-12T13:06:51.832Z,52.87
2023-05-12T13:16:53.273Z,52.73
2023-05-12T13:26:54.609Z,52.52
2023-05-12T13:36:55.846Z,52.63
2023-05-12T13:46:57.100Z,52.89
2023-05-12T13:56:58.339Z,52.61
2023-05-12T14:06:59.552Z,52.94
2023-05-12T14:17:00.809Z,52.80
2023-05-12T14:27:02.078Z,53.54
2023-05-12T14:37:04.565Z,53.53
2023-05-12T14:47:07.519Z,53.07
2023-05-12T14:57:10.182Z,52.91
2023-05-12T15:07:11.404Z,52.22
2023-05-12T15:17:12.789Z,51.83
2023-05-12T15:27:14.122Z,52.05
2023-05-12T15:37:15.421Z,51.08
2023-05-12T15:47:16.656Z,51.46
2023-05-12T15:57:17.905Z,51.07
2023-05-12T16:07:19.211Z,51.62
2023-05-12T16:17:20.464Z,51.51
2023-05-12T16:27:21.706Z,51.49
2023-05-12T16:37:23.044Z,51.59
2023-05-12T16:47:24.361Z,51.89
2023-05-12T16:57:25.666Z,51.74
2023-05-12T17:07:26.909Z,51.91
2023-05-12T17:17:28.224Z,51.55
2023-05-12T17:27:29.571Z,52.23
2023-05-12T17:37:30.925Z,52.33
2023-05-12T17:47:32.245Z,52.12
2023-05-12T17:57:33.553Z,52.40
2023-05-12T18:07:34.850Z,52.32
2023-05-12T18:17:36.524Z,52.15
2023-05-12T18:27:38.060Z,51.93
2023-05-12T18:37:39.950Z,52.03
2023-05-12T18:47:41.286Z,52.48
2023-05-12T18:57:42.565Z,52.20
2023-05-12T19:07:43.811Z,52.26
2023-05-12T19:17:45.166Z,52.29
2023-05-12T19:27:46.441Z,52.40
2023-05-12T19:37:47.824Z,52.12
2023-05-12T19:47:49.204Z,52.20
2023-05-12T19:57:50.577Z,51.98
2023-05-12T20:07:51.793Z,51.98
2023-05-12T20:17:53.132Z,52.13
2023-05-12T20:27:54.450Z,51.75
2023-05-12T20:37:55.684Z,51.75
2023-05-12T20:47:57.237Z,51.83
2023-05-12T20:57:58.552Z,51.67
2023-05-12T21:07:59.790Z,51.58
2023-05-12T21:18:01.211Z,51.47
2023-05-12T21:28:02.494Z,51.58
2023-05-12T21:38:03.726Z,51.34
2023-05-12T21:48:05.069Z,51.38
2023-05-12T21:58:06.352Z,51.19
2023-05-12T22:08:07.653Z,51.15
2023-05-12T22:18:08.922Z,51.33
2023-05-12T22:28:10.174Z,50.98
2023-05-12T22:38:11.406Z,50.76
2023-05-12T22:48:12.676Z,50.64
2023-05-12T22:58:13.903Z,50.43
2023-05-12T23:08:15.175Z,50.68
2023-05-12T23:18:17.554Z,50.70
2023-05-12T23:28:18.822Z,50.38
2023-05-12T23:38:20.116Z,50.06
2023-05-12T23:48:21.387Z,50.11
2023-05-12T23:58:22.669Z,50.22
